createdAt,value
2022-10-18T00:00:22.012Z,4.77
2022-10-18T00:02:50.788Z,4.93
2022-10-18T00:05:18.426Z,4.70
2022-10-18T00:07:45.852Z,4.10
2022-10-18T00:10:13.299Z,3.75
2022-10-18T00:12:41.457Z,3.70
2022-10-18T00:15:10.251Z,4.28
2022-10-18T00:17:38.677Z,4.40
2022-10-18T00:20:08.833Z,3.05
2022-10-18T00:22:37.593Z,3.42
2022-10-18T00:25:06.137Z,4.10
2022-10-18T00:27:34.520Z,3.42
2022-10-18T00:30:01.992Z,3.08
2022-10-18T00:32:29.564Z,2.85
2022-10-18T00:34:57.287Z,3.38
2022-10-18T00:37:26.059Z,3.30
2022-10-18T00:39:53.507Z,3.17
2022-10-18T00:42:23.565Z,3.33
2022-10-18T00:45:20.856Z,3.30
2022-10-18T00:47:53.084Z,3.85
2022-10-18T00:50:22.191Z,3.80
2022-10-18T00:52:54.057Z,4.38
2022-10-18T00:55:21.848Z,4.05
2022-10-18T00:57:50.705Z,4.13
2022-10-18T01:00:19.485Z,4.13
2022-10-18T01:02:47.825Z,3.87
2022-10-18T01:05:17.616Z,4.38
2022-10-18T01:08:08.399Z,7.75
2022-10-18T01:10:42.648Z,6.22
2022-10-18T01:13:25.922Z,5.47
2022-10-18T01:16:01.136Z,6.00
2022-10-18T01:18:34.945Z,4.40
2022-10-18T01:21:17.389Z,3.70
2022-10-18T01:24:16.323Z,3.80
2022-10-18T01:27:03.081Z,4.32
2022-10-18T01:29:43.274Z,4.07
2022-10-18T01:32:15.897Z,3.78
2022-10-18T01:34:46.720Z,4.43
2022-10-18T01:37:17.922Z,3.33
2022-10-18T01:39:47.743Z,3.50
2022-10-18T01:42:19.714Z,3.40
2022-10-18T01:44:49.344Z,4.03
2022-10-18T01:47:19.177Z,3.50
2022-10-18T01:49:46.845Z,4.15
2022-10-18T01:52:15.315Z,3.10
2022-10-18T01:54:45.998Z,3.57
2022-10-18T01:57:22.797Z,3.83
2022-10-18T01:59:59.294Z,3.67
2022-10-18T02:02:41.452Z,3.88
2022-10-18T02:05:18.730Z,3.20
2022-10-18T02:08:00.341Z,3.37
2022-10-18T02:10:43.404Z,3.53
2022-10-18T02:13:12.348Z,3.42
2022-10-18T02:15:44.744Z,4.63
2022-10-18T02:18:19.272Z,3.50
2022-10-18T02:20:48.736Z,4.40
2022-10-18T02:23:21.739Z,3.72
2022-10-18T02:25:49.535Z,3.78
2022-10-18T02:28:17.029Z,3.58
2022-10-18T02:30:52.473Z,3.20
2022-10-18T02:33:28.575Z,2.90
2022-10-18T02:36:02.993Z,3.13
2022-10-18T02:38:32.536Z,2.45
2022-10-18T02:41:00.577Z,2.10
2022-10-18T02:43:27.995Z,2.80
2022-10-18T02:45:55.542Z,1.90
2022-10-18T02:48:24.307Z,2.10
2022-10-18T02:50:51.741Z,2.10
2022-10-18T02:53:19.177Z,2.05
2022-10-18T02:55:46.638Z,2.45
2022-10-18T02:58:14.675Z,1.53
2022-10-18T03:00:42.086Z,1.63
2022-10-18T03:03:09.481Z,2.05
2022-10-18T03:05:38.272Z,2.30
2022-10-18T03:08:05.839Z,2.53
2022-10-18T03:10:33.248Z,1.90
2022-10-18T03:13:00.715Z,1.85
2022-10-18T03:15:28.144Z,1.50
2022-10-18T03:17:55.616Z,1.88
2022-10-18T03:20:23.308Z,2.53
2022-10-18T03:22:52.047Z,1.50
2022-10-18T03:25:19.477Z,2.00
2022-10-18T03:27:46.896Z,1.50
2022-10-18T03:30:14.440Z,1.52
2022-10-18T03:32:42.044Z,1.75
2022-10-18T03:35:10.471Z,1.40
2022-10-18T03:37:37.944Z,1.55
2022-10-18T03:40:08.632Z,1.30
2022-10-18T03:42:36.052Z,1.83
2022-10-18T03:45:03.503Z,1.50
2022-10-18T03:47:30.938Z,1.77
2022-10-18T03:49:59.052Z,2.15
2022-10-18T03:52:26.512Z,2.08
2022-10-18T03:54:54.035Z,2.13
2022-10-18T03:57:22.871Z,1.80
2022-10-18T03:59:50.312Z,2.03
2022-10-18T04:02:17.841Z,1.88
2022-10-18T04:04:45.279Z,2.40
2022-10-18T04:07:12.710Z,2.65
2022-10-18T04:09:40.154Z,2.88
2022-10-18T04:12:07.664Z,3.27
2022-10-18T04:14:36.463Z,3.35
2022-10-18T04:17:04.711Z,4.55
2022-10-18T04:19:32.097Z,6.30
2022-10-18T04:21:59.532Z,4.97
2022-10-18T04:24:26.906Z,4.77
2022-10-18T04:26:54.309Z,3.17
2022-10-18T04:29:21.924Z,4.30
2022-10-18T04:31:50.697Z,7.03
2022-10-18T04:34:18.180Z,6.60
2022-10-18T04:36:45.581Z,8.60
2022-10-18T04:39:12.987Z,16.52
2022-10-18T04:41:40.504Z,8.73
2022-10-18T04:44:07.964Z,11.95
2022-10-18T04:46:35.602Z,8.13
2022-10-18T04:49:04.600Z,9.90
2022-10-18T04:51:32.005Z,12.85
2022-10-18T04:53:59.422Z,10.15
2022-10-18T04:56:26.832Z,13.07
2022-10-18T04:58:54.273Z,14.75
2022-10-18T05:01:21.718Z,17.87
2022-10-18T05:03:52.979Z,16.10
2022-10-18T05:06:21.874Z,10.63
2022-10-18T05:08:49.338Z,7.78
2022-10-18T05:11:16.910Z,12.45
2022-10-18T05:13:47.173Z,14.73
2022-10-18T05:16:17.724Z,11.60
2022-10-18T05:18:45.188Z,15.07
2022-10-18T05:21:12.662Z,10.68
2022-10-18T05:23:41.420Z,10.85
2022-10-18T05:26:09.603Z,12.67
2022-10-18T05:28:40.096Z,15.98
2022-10-18T05:31:09.481Z,14.55
2022-10-18T05:33:37.132Z,14.50
2022-10-18T05:36:05.031Z,10.73
2022-10-18T05:38:32.649Z,14.87
2022-10-18T05:41:05.264Z,12.93
2022-10-18T05:43:32.705Z,15.65
2022-10-18T05:46:00.128Z,8.63
2022-10-18T05:48:27.537Z,8.38
2022-10-18T05:50:54.928Z,8.23
2022-10-18T05:53:36.171Z,8.18
2022-10-18T05:56:06.863Z,8.25
2022-10-18T05:58:34.850Z,8.52
2022-10-18T06:01:03.067Z,8.13
2022-10-18T06:03:31.369Z,8.07
2022-10-18T06:06:02.407Z,7.65
2022-10-18T06:08:29.917Z,7.32
2022-10-18T06:10:57.635Z,6.78
2022-10-18T06:13:26.380Z,7.10
2022-10-18T06:15:56.820Z,7.70
2022-10-18T06:18:24.255Z,6.65
2022-10-18T06:20:57.436Z,6.50
2022-10-18T06:23:24.919Z,7.45
2022-10-18T06:25:52.335Z,8.30
2022-10-18T06:28:19.990Z,7.50
2022-10-18T06:30:48.823Z,8.15
2022-10-18T06:33:16.304Z,7.57
2022-10-18T06:35:43.684Z,7.72
2022-10-18T06:38:11.104Z,6.93
2022-10-18T06:40:38.613Z,7.70
2022-10-18T06:43:20.165Z,6.85
2022-10-18T06:45:50.461Z,7.35
2022-10-18T06:50:56.711Z,6.78
2022-10-18T06:53:24.581Z,6.80
2022-10-18T06:55:52.077Z,5.53
2022-10-18T06:58:19.807Z,6.97
2022-10-18T07:00:47.491Z,5.78
2022-10-18T07:03:16.250Z,6.18
2022-10-18T07:05:43.964Z,6.00
2022-10-18T07:08:11.380Z,6.10
2022-10-18T07:10:38.779Z,5.45
2022-10-18T07:13:30.901Z,4.82
2022-10-18T07:16:06.221Z,5.55
2022-10-18T07:18:36.530Z,6.10
2022-10-18T07:21:05.543Z,5.68
2022-10-18T07:23:34.705Z,5.63
2022-10-18T07:26:02.897Z,5.78
2022-10-18T07:28:31.113Z,5.13
2022-10-18T07:31:02.401Z,4.97
2022-10-18T07:33:34.716Z,5.00
2022-10-18T07:36:02.915Z,4.63
2022-10-18T07:38:30.344Z,4.63
2022-10-18T07:40:58.443Z,4.78
2022-10-18T07:43:25.888Z,4.67
2022-10-18T07:45:53.884Z,4.88
2022-10-18T07:48:21.359Z,4.40
2022-10-18T07:50:50.196Z,5.47
2022-10-18T07:53:17.656Z,5.90
2022-10-18T07:55:45.547Z,4.73
2022-10-18T07:58:13.115Z,5.05
2022-10-18T08:00:40.975Z,5.07
2022-10-18T08:03:08.506Z,4.85
2022-10-18T08:05:35.918Z,4.80
2022-10-18T08:08:07.935Z,5.20
2022-10-18T08:10:36.603Z,5.10
2022-10-18T08:13:04.015Z,5.32
2022-10-18T08:15:31.460Z,5.85
2022-10-18T08:17:58.905Z,4.82
2022-10-18T08:20:30.743Z,5.20
2022-10-18T08:23:00.384Z,5.28
2022-10-18T08:25:29.607Z,4.65
2022-10-18T08:27:57.276Z,4.95
2022-10-18T08:30:24.690Z,4.57
2022-10-18T08:32:52.101Z,5.50
2022-10-18T08:35:19.620Z,6.47
2022-10-18T08:37:48.348Z,7.47
2022-10-18T08:40:16.534Z,7.35
2022-10-18T08:42:59.064Z,5.63
2022-10-18T08:45:41.818Z,4.73
2022-10-18T08:48:22.619Z,4.32
2022-10-18T08:50:51.766Z,4.15
2022-10-18T08:53:25.543Z,3.22
2022-10-18T08:55:58.753Z,3.03
2022-10-18T08:58:31.990Z,3.20
2022-10-18T09:01:08.315Z,3.22
2022-10-18T09:03:56.757Z,3.50
2022-10-18T09:06:30.030Z,2.65
2022-10-18T09:09:15.245Z,3.50
2022-10-18T09:11:58.140Z,3.10
2022-10-18T09:14:51.101Z,2.97
2022-10-18T09:17:26.051Z,3.70
2022-10-18T09:20:03.917Z,3.30
2022-10-18T09:22:43.428Z,4.55
2022-10-18T09:25:19.797Z,4.80
2022-10-18T09:27:53.359Z,4.55
2022-10-18T09:30:34.452Z,3.70
2022-10-18T09:33:15.839Z,3.40
2022-10-18T09:35:45.612Z,3.35
2022-10-18T09:38:16.949Z,5.00
2022-10-18T09:40:51.620Z,3.45
2022-10-18T09:43:23.811Z,3.72
2022-10-18T09:45:55.345Z,2.88
2022-10-18T09:48:27.952Z,3.33
2022-10-18T09:50:59.505Z,3.23
2022-10-18T09:53:37.380Z,2.95
2022-10-18T09:56:07.744Z,3.35
2022-10-18T09:58:43.136Z,3.00
2022-10-18T10:01:15.146Z,3.13
2022-10-18T10:03:43.166Z,3.13
2022-10-18T10:06:24.047Z,3.17
2022-10-18T10:08:56.533Z,3.33
2022-10-18T10:11:29.490Z,3.53
2022-10-18T10:13:58.667Z,3.40
2022-10-18T10:16:27.968Z,2.70
2022-10-18T10:18:55.935Z,2.97
2022-10-18T10:21:23.536Z,2.40
2022-10-18T10:23:55.380Z,2.70
2022-10-18T10:26:25.464Z,3.20
2022-10-18T10:28:53.012Z,3.40
2022-10-18T10:31:29.930Z,3.65
2022-10-18T10:34:02.434Z,2.95
2022-10-18T10:36:31.020Z,3.75
2022-10-18T10:39:11.827Z,3.65
2022-10-18T10:41:41.818Z,4.17
2022-10-18T10:44:17.002Z,4.10
2022-10-18T10:46:46.471Z,4.30
2022-10-18T10:49:39.158Z,3.10
2022-10-18T10:52:15.426Z,3.55
2022-10-18T10:54:55.743Z,3.77
2022-10-18T10:57:29.826Z,3.28
2022-10-18T10:59:59.542Z,3.80
2022-10-18T11:02:32.346Z,4.00
2022-10-18T11:05:22.775Z,4.28
2022-10-18T11:07:56.126Z,5.63
2022-10-18T11:10:29.135Z,5.20
2022-10-18T11:13:03.801Z,5.47
2022-10-18T11:15:36.553Z,6.70
2022-10-18T11:18:14.315Z,6.00
2022-10-18T11:20:44.196Z,5.60
2022-10-18T11:23:13.547Z,6.03
2022-10-18T11:26:12.185Z,7.00
2022-10-18T11:28:59.024Z,7.82
2022-10-18T11:31:33.701Z,7.07
2022-10-18T11:34:18.496Z,6.63
2022-10-18T11:37:15.578Z,8.48
2022-10-18T11:39:58.069Z,9.07
2022-10-18T11:42:36.705Z,9.98
2022-10-18T11:45:15.824Z,9.73
2022-10-18T11:47:53.555Z,9.70
2022-10-18T11:50:34.169Z,11.48
2022-10-18T11:53:10.789Z,10.95
2022-10-18T11:55:45.824Z,9.68
2022-10-18T11:58:33.000Z,10.43
2022-10-18T12:01:13.346Z,9.10
2022-10-18T12:03:52.631Z,11.13
2022-10-18T12:06:24.742Z,11.73
2022-10-18T12:08:56.845Z,10.88
2022-10-18T12:11:29.715Z,12.13
2022-10-18T12:13:59.968Z,8.63
2022-10-18T12:16:49.963Z,14.05
2022-10-18T12:19:25.250Z,12.70
2022-10-18T12:21:57.254Z,11.45
2022-10-18T12:24:28.849Z,12.95
2022-10-18T12:26:59.999Z,11.50
2022-10-18T12:29:33.976Z,11.43
2022-10-18T12:32:06.760Z,10.82
2022-10-18T12:34:38.121Z,9.30
2022-10-18T12:37:24.212Z,9.85
2022-10-18T12:40:12.498Z,10.00
2022-10-18T12:42:44.370Z,7.30
2022-10-18T12:45:25.627Z,10.45
2022-10-18T12:47:53.868Z,9.82
2022-10-18T12:50:30.395Z,8.52
2022-10-18T12:53:08.661Z,7.73
2022-10-18T12:55:38.808Z,9.18
2022-10-18T12:58:23.492Z,9.45
2022-10-18T13:01:01.076Z,9.73
2022-10-18T13:04:00.885Z,9.10
2022-10-18T13:07:07.806Z,9.60
2022-10-18T13:09:38.096Z,9.70
2022-10-18T13:12:38.782Z,8.00
2022-10-18T13:15:26.553Z,10.00
2022-10-18T13:18:01.024Z,11.18
2022-10-18T13:20:38.514Z,10.77
2022-10-18T13:23:20.609Z,8.55
2022-10-18T13:25:57.673Z,10.88
2022-10-18T13:28:31.788Z,11.10
2022-10-18T13:31:09.684Z,9.63
2022-10-18T13:33:39.550Z,9.77
2022-10-18T13:36:23.131Z,9.90
2022-10-18T13:39:02.903Z,9.40
2022-10-18T13:41:35.469Z,9.73
2022-10-18T13:44:25.485Z,9.38
2022-10-18T13:47:35.975Z,10.07
2022-10-18T13:50:41.376Z,9.32
2022-10-18T13:53:44.096Z,10.75
2022-10-18T13:56:26.165Z,9.13
2022-10-18T13:59:14.977Z,9.02
2022-10-18T14:01:53.755Z,10.23
2022-10-18T14:04:38.708Z,11.65
2022-10-18T14:07:08.449Z,11.13
2022-10-18T14:09:45.167Z,10.80
2022-10-18T14:12:23.733Z,9.50
2022-10-18T14:14:58.780Z,10.80
2022-10-18T14:17:34.853Z,8.88
2022-10-18T14:20:13.993Z,9.75
2022-10-18T14:22:46.687Z,9.48
2022-10-18T14:25:22.174Z,7.32
2022-10-18T14:27:52.325Z,7.10
2022-10-18T14:30:23.848Z,8.55
2022-10-18T14:32:54.361Z,8.85
2022-10-18T14:35:38.648Z,9.40
2022-10-18T14:38:14.220Z,8.50
2022-10-18T14:40:42.113Z,9.17
2022-10-18T14:43:14.279Z,10.05
2022-10-18T14:45:43.817Z,9.32
2022-10-18T14:48:16.803Z,8.35
2022-10-18T14:50:46.968Z,10.35
2022-10-18T14:53:20.508Z,8.90
2022-10-18T14:55:55.543Z,9.90
2022-10-18T14:58:23.496Z,10.30
2022-10-18T15:00:52.222Z,10.63
2022-10-18T15:03:19.818Z,10.15
2022-10-18T15:05:55.353Z,9.47
2022-10-18T15:08:24.272Z,10.95
2022-10-18T15:10:52.204Z,8.45
2022-10-18T15:13:19.863Z,10.13
2022-10-18T15:15:47.755Z,9.95
2022-10-18T15:18:22.623Z,10.23
2022-10-18T15:21:08.505Z,11.00
2022-10-18T15:23:35.994Z,12.10
2022-10-18T15:26:06.549Z,10.70
2022-10-18T15:28:37.710Z,10.35
2022-10-18T15:31:05.530Z,9.57
2022-10-18T15:33:34.694Z,9.95
2022-10-18T15:36:10.980Z,9.65
2022-10-18T15:38:39.511Z,12.20
2022-10-18T15:41:37.667Z,11.57
2022-10-18T15:44:13.272Z,12.60
2022-10-18T15:46:41.644Z,12.95
2022-10-18T15:49:50.804Z,13.30
2022-10-18T15:52:51.528Z,12.98
2022-10-18T15:55:47.612Z,13.07
2022-10-18T15:58:19.850Z,13.23
2022-10-18T16:00:48.776Z,15.77
2022-10-18T16:03:17.958Z,15.25
2022-10-18T16:05:46.820Z,13.82
2022-10-18T16:08:20.703Z,14.70
2022-10-18T16:10:48.224Z,14.57
2022-10-18T16:13:15.658Z,14.93
2022-10-18T16:15:43.164Z,14.52
2022-10-18T16:18:15.124Z,14.50
2022-10-18T16:20:42.765Z,15.07
2022-10-18T16:23:17.634Z,13.47
2022-10-18T16:25:45.260Z,15.45
2022-10-18T16:28:18.138Z,14.32
2022-10-18T16:30:52.828Z,17.05
2022-10-18T16:33:21.631Z,14.35
2022-10-18T16:35:49.587Z,16.23
2022-10-18T16:38:27.237Z,16.95
2022-10-18T16:40:57.548Z,17.10
2022-10-18T16:43:25.717Z,16.30
2022-10-18T16:45:54.690Z,17.35
2022-10-18T16:48:24.414Z,18.00
2022-10-18T16:50:53.026Z,16.08
2022-10-18T16:53:23.694Z,17.95
2022-10-18T16:55:54.375Z,17.27
2022-10-18T17:00:51.371Z,18.80
2022-10-18T17:03:18.894Z,20.35
2022-10-18T17:05:46.343Z,17.60
2022-10-18T17:08:18.925Z,18.52
2022-10-18T17:10:49.536Z,17.73
2022-10-18T17:13:17.634Z,15.03
2022-10-18T17:15:45.310Z,18.40
2022-10-18T17:18:14.767Z,18.92
2022-10-18T17:20:42.650Z,18.75
2022-10-18T17:23:10.186Z,18.02
2022-10-18T17:25:46.255Z,19.00
2022-10-18T17:28:26.665Z,19.48
2022-10-18T17:30:54.097Z,19.67
2022-10-18T17:33:21.512Z,15.40
2022-10-18T17:35:49.479Z,18.85
2022-10-18T17:38:17.107Z,19.43
2022-10-18T17:40:44.752Z,18.55
2022-10-18T17:43:13.569Z,17.10
2022-10-18T17:45:49.091Z,19.83
2022-10-18T17:48:16.523Z,17.60
2022-10-18T17:50:43.951Z,18.13
2022-10-18T17:53:11.927Z,16.17
2022-10-18T17:55:39.720Z,18.77
2022-10-18T17:58:07.153Z,20.70
2022-10-18T18:00:34.592Z,19.42
2022-10-18T18:03:03.457Z,18.17
2022-10-18T18:05:32.289Z,18.13
2022-10-18T18:08:03.669Z,16.13
2022-10-18T18:10:33.174Z,14.75
2022-10-18T18:13:00.700Z,13.45
2022-10-18T18:15:28.259Z,14.47
2022-10-18T18:17:57.704Z,15.25
2022-10-18T18:20:27.315Z,17.10
2022-10-18T18:22:54.740Z,16.88
2022-10-18T18:25:22.167Z,14.27
2022-10-18T18:27:49.601Z,12.27
2022-10-18T18:30:17.800Z,11.00
2022-10-18T18:32:45.392Z,11.50
2022-10-18T18:35:12.922Z,12.25
2022-10-18T18:37:41.761Z,12.75
2022-10-18T18:40:09.873Z,12.53
2022-10-18T18:42:37.303Z,14.35
2022-10-18T18:45:05.242Z,13.95
2022-10-18T18:47:35.300Z,14.02
2022-10-18T18:50:02.884Z,11.15
2022-10-18T18:52:30.558Z,11.33
2022-10-18T18:54:59.540Z,14.98
2022-10-18T18:57:26.993Z,15.32
2022-10-18T18:59:54.424Z,15.70
2022-10-18T19:02:21.856Z,16.90
2022-10-18T19:04:50.600Z,19.70
2022-10-18T19:07:18.256Z,18.85
2022-10-18T19:09:46.888Z,19.15
2022-10-18T19:12:20.416Z,17.77
2022-10-18T19:14:48.856Z,17.13
2022-10-18T19:17:16.259Z,16.00
2022-10-18T19:19:43.719Z,16.58
2022-10-18T19:22:11.125Z,15.73
2022-10-18T19:24:38.600Z,16.05
2022-10-18T19:27:09.529Z,16.05
2022-10-18T19:29:40.232Z,16.53
2022-10-18T19:32:11.852Z,16.20
2022-10-18T19:34:39.449Z,15.25
2022-10-18T19:37:07.850Z,15.57
2022-10-18T19:39:36.365Z,17.17
2022-10-18T19:42:06.410Z,17.53
2022-10-18T19:44:36.424Z,16.33
2022-10-18T19:47:06.584Z,18.55
2022-10-18T19:49:34.112Z,18.95
2022-10-18T19:52:01.542Z,16.35
2022-10-18T19:54:29.234Z,17.10
2022-10-18T19:56:56.631Z,17.77
2022-10-18T19:59:24.986Z,15.55
2022-10-18T20:01:52.478Z,17.85
2022-10-18T20:04:21.264Z,14.80
2022-10-18T20:06:48.679Z,15.50
2022-10-18T20:09:19.567Z,15.63
2022-10-18T20:11:48.347Z,15.20
2022-10-18T20:14:15.866Z,16.02
2022-10-18T20:16:43.333Z,16.35
2022-10-18T20:19:11.598Z,15.80
2022-10-18T20:21:40.350Z,15.93
2022-10-18T20:24:09.183Z,16.88
2022-10-18T20:26:36.692Z,14.95
2022-10-18T20:29:05.202Z,16.35
2022-10-18T20:31:35.413Z,15.93
2022-10-18T20:34:05.660Z,15.60
2022-10-18T20:36:33.828Z,14.98
2022-10-18T20:39:03.141Z,15.02
2022-10-18T20:41:31.763Z,18.05
2022-10-18T20:44:00.750Z,15.53
2022-10-18T20:46:30.782Z,15.75
2022-10-18T20:48:58.544Z,17.50
2022-10-18T20:51:26.044Z,15.77
2022-10-18T20:53:54.304Z,16.08
2022-10-18T20:56:26.286Z,16.70
2022-10-18T20:58:56.148Z,16.02
2022-10-18T21:01:25.615Z,16.15
2022-10-18T21:03:54.729Z,16.23
2022-10-18T21:06:24.284Z,14.77
2022-10-18T21:08:54.293Z,15.13
2022-10-18T21:11:23.961Z,14.65
2022-10-18T21:13:52.178Z,15.95
2022-10-18T21:16:19.639Z,14.30
2022-10-18T21:18:47.551Z,14.77
2022-10-18T21:21:16.659Z,15.27
2022-10-18T21:23:44.421Z,14.48
2022-10-18T21:26:15.195Z,13.52
2022-10-18T21:28:44.039Z,13.57
2022-10-18T21:31:14.416Z,14.65
2022-10-18T21:33:42.998Z,16.83
2022-10-18T21:36:11.332Z,13.77
2022-10-18T21:38:39.382Z,14.48
2022-10-18T21:41:11.270Z,18.23
2022-10-18T21:43:40.799Z,20.17
2022-10-18T21:46:10.899Z,25.77
2022-10-18T21:48:38.927Z,16.67
2022-10-18T21:51:08.050Z,21.25
2022-10-18T21:53:36.015Z,17.00
2022-10-18T21:56:07.636Z,14.35
2022-10-18T21:58:35.870Z,14.43
2022-10-18T22:01:09.362Z,11.85
2022-10-18T22:03:37.171Z,12.95
2022-10-18T22:06:07.642Z,12.20
2022-10-18T22:08:35.388Z,12.70
2022-10-18T22:11:03.640Z,12.07
2022-10-18T22:13:31.436Z,11.70
2022-10-18T22:16:01.739Z,11.40
2022-10-18T22:18:30.926Z,15.18
2022-10-18T22:21:00.581Z,15.10
2022-10-18T22:23:32.794Z,12.83
2022-10-18T22:26:03.647Z,14.02
2022-10-18T22:28:31.168Z,13.02
2022-10-18T22:30:59.016Z,11.80
2022-10-18T22:33:26.514Z,13.07
2022-10-18T22:35:55.382Z,12.63
2022-10-18T22:38:22.807Z,12.57
2022-10-18T22:40:51.685Z,11.65
2022-10-18T22:43:19.694Z,9.77
2022-10-18T22:45:47.121Z,12.52
2022-10-18T22:48:14.552Z,11.17
2022-10-18T22:50:41.956Z,10.93
2022-10-18T22:53:10.700Z,11.35
2022-10-18T22:55:38.112Z,10.10
2022-10-18T22:58:05.519Z,9.00
2022-10-18T23:00:32.970Z,13.53
2022-10-18T23:03:00.540Z,10.50
2022-10-18T23:05:27.948Z,10.40
2022-10-18T23:07:55.365Z,10.00
2022-10-18T23:10:24.139Z,13.48
2022-10-18T23:12:51.584Z,11.83
2022-10-18T23:15:19.002Z,10.93
2022-10-18T23:17:46.756Z,9.35
2022-10-18T23:20:14.196Z,12.20
2022-10-18T23:22:41.620Z,10.07
2022-10-18T23:25:09.850Z,11.17
2022-10-18T23:27:38.649Z,11.38
2022-10-18T23:30:07.432Z,10.05
2022-10-18T23:32:35.107Z,10.07
2022-10-18T23:35:02.758Z,10.60
2022-10-18T23:37:30.251Z,9.17
2022-10-18T23:39:57.820Z,8.65
2022-10-18T23:42:25.357Z,8.70
2022-10-18T23:44:54.116Z,9.35
2022-10-18T23:47:21.575Z,7.78
2022-10-18T23:49:48.997Z,8.13
2022-10-18T23:52:16.452Z,9.48
2022-10-18T23:57:13.165Z,8.25
2022-10-18T23:59:40.800Z,8.10
